Terminal Aerodrome Forecast
Issued by NWS

Home | Current Version | Previous Version | Text Only | Print | Product List | Glossary On
Versions: 1 2 3 4 5 6 7 8 9 10 11 12 13 14 15 16 17 18 19 20 21 22 23 24 25 26 27 28 29 30 31
000
FTUS46 KPQR 230523
TAFONP
TAF
KONP 230523Z 2306/2406 21014KT 5SM -SHRA BKN015 OVC030
      TEMPO 2306/2310 2SM SHRA BKN008 OVC012
     FM231200 19014G24KT P6SM -SHRA BKN025 OVC040
     FM231800 23013KT P6SM -SHRA SCT035 BKN060=

USA.gov is the U.S. government's official web portal to all federal, state and local government web resources and services.